| time (UTC) | temp F | wind direction | speed knots | gust knots | rain 1hr in | rain 24hr in | rain mn in | humidity % | barometer mb |
| 20260503220300 | 61 | 234 | 1.7 | 3.5 | 0.00 | 0.00 | 0.00 | 27 | 1017.0 |
| 20260503215756 | 61 | 321 | 2.6 | 3.5 | 0.00 | 0.00 | 0.00 | 31 | 1017.0 |
| 20260503215253 | 60 | 307 | 1.7 | 6.1 | 0.00 | 0.00 | 0.00 | 31 | 1017.3 |
| 20260503214751 | 61 | 319 | 2.6 | 4.3 | 0.00 | 0.00 | 0.00 | 29 | 1017.3 |
| 20260503214248 | 61 | 322 | 3.5 | 7.0 | 0.00 | 0.00 | 0.00 | 28 | 1017.2 |
| 20260503213746 | 61 | 291 | 3.5 | 4.3 | 0.00 | 0.00 | 0.00 | 29 | 1017.4 |
| 20260503213243 | 62 | 225 | 1.7 | 6.1 | 0.00 | 0.00 | 0.00 | 28 | 1017.4 |
| 20260503212740 | 60 | 333 | 2.6 | 7.8 | 0.00 | 0.00 | 0.00 | 28 | 1017.3 |
| 20260503212238 | 60 | 346 | 6.1 | 8.7 | 0.00 | 0.00 | 0.00 | 29 | 1017.2 |
| 20260503211735 | 60 | 174 | 2.6 | 4.3 | 0.00 | 0.00 | 0.00 | 28 | 1017.4 |
| 20260503211231 | 60 | 351 | 6.1 | 7.0 | 0.00 | 0.00 | 0.00 | 28 | 1017.5 |
| 20260503210727 | 60 | 238 | 2.6 | 5.2 | 0.00 | 0.00 | 0.00 | 27 | 1017.7 |
| 20260503210225 | 60 | 353 | 4.3 | 4.3 | 0.00 | 0.00 | 0.00 | 27 | 1017.6 |
| 20260503205720 | 60 | 355 | 5.2 | 7.8 | 0.00 | 0.00 | 0.00 | 28 | 1017.6 |
| 20260503205216 | 59 | 323 | 1.7 | 6.1 | 0.00 | 0.00 | 0.00 | 28 | 1017.5 |
| 20260503204712 | 59 | 300 | 4.3 | 6.1 | 0.00 | 0.00 | 0.00 | 30 | 1017.6 |
| 20260503204210 | 61 | 304 | 3.5 | 7.0 | 0.00 | 0.00 | 0.00 | 28 | 1017.7 |
| 20260503203707 | 61 | 193 | 2.6 | 4.3 | 0.00 | 0.00 | 0.00 | 28 | 1017.6 |
| 20260503203205 | 60 | 315 | 3.5 | 3.5 | 0.00 | 0.00 | 0.00 | 31 | 1017.9 |
| 20260503202702 | 60 | 340 | 1.7 | 6.1 | 0.00 | 0.00 | 0.00 | 30 | 1017.8 |
| 20260503202200 | 61 | 158 | 5.2 | 5.2 | 0.00 | 0.00 | 0.00 | 29 | 1017.8 |
| 20260503201657 | 62 | 106 | 1.7 | 4.3 | 0.00 | 0.00 | 0.00 | 26 | 1017.7 |
| 20260503201155 | 62 | 170 | 2.6 | 5.2 | 0.00 | 0.00 | 0.00 | 28 | 1017.9 |
| 20260503200650 | 61 | 214 | 0.0 | 7.8 | 0.00 | 0.00 | 0.00 | 27 | 1018.2 |
| 20260503200147 | 61 | 231 | 2.6 | 5.2 | 0.00 | 0.00 | 0.00 | 26 | 1018.3 |
| 20260503195644 | 61 | 292 | 3.5 | 5.2 | 0.00 | 0.00 | 0.00 | 29 | 1018.4 |
| 20260503195141 | 62 | 257 | 1.7 | 6.1 | 0.00 | 0.00 | 0.00 | 28 | 1018.5 |
| 20260503194638 | 60 | 251 | 1.7 | 7.8 | 0.00 | 0.00 | 0.00 | 28 | 1018.5 |
| 20260503194133 | 59 | 343 | 3.5 | 5.2 | 0.00 | 0.00 | 0.00 | 29 | 1018.5 |
| 20260503193631 | 61 | 291 | 4.3 | 4.3 | 0.00 | 0.00 | 0.00 | 31 | 1018.7 |
| 20260503193126 | 62 | 322 | 7.8 | 8.7 | 0.00 | 0.00 | 0.00 | 28 | 1018.6 |
| 20260503192622 | 61 | 182 | 2.6 | 7.8 | 0.00 | 0.00 | 0.00 | 30 | 1018.8 |
| 20260503192118 | 62 | 220 | 1.7 | 5.2 | 0.00 | 0.00 | 0.00 | 29 | 1018.8 |
| 20260503191615 | 61 | 217 | 1.7 | 5.2 | 0.00 | 0.00 | 0.00 | 26 | 1018.6 |
| 20260503191111 | 59 | 322 | 3.5 | 3.5 | 0.00 | 0.00 | 0.00 | 29 | 1018.7 |
| 20260503190609 | 57 | 241 | 4.3 | 10.4 | 0.00 | 0.00 | 0.00 | 29 | 1018.8 |
| 20260503190106 | 58 | 297 | 5.2 | 5.2 | 0.00 | 0.00 | 0.00 | 30 | 1018.9 |
| 20260503185602 | 59 | 306 | 4.3 | 6.1 | 0.00 | 0.00 | 0.00 | 30 | 1019.0 |
| 20260503185102 | 58 | 347 | 6.1 | 7.8 | 0.00 | 0.00 | 0.00 | 31 | 1019.0 |
| 20260503184558 | 59 | 357 | 2.6 | 7.0 | 0.00 | 0.00 | 0.00 | 30 | 1019.0 |
| 20260503184055 | 57 | 339 | 4.3 | 7.8 | 0.00 | 0.00 | 0.00 | 31 | 1019.6 |
| 20260503183551 | 59 | 313 | 4.3 | 7.0 | 0.00 | 0.00 | 0.00 | 31 | 1019.6 |
| 20260503183048 | 58 | 301 | 2.6 | 7.0 | 0.00 | 0.00 | 0.00 | 29 | 1019.5 |
| 20260503182547 | 60 | 195 | 4.3 | 4.3 | 0.00 | 0.00 | 0.00 | 28 | 1019.4 |
| 20260503182045 | 59 | 163 | 3.5 | 5.2 | 0.00 | 0.00 | 0.00 | 30 | 1019.5 |
| 20260503181541 | 57 | 316 | 5.2 | 9.6 | 0.00 | 0.00 | 0.00 | 30 | 1019.8 |
| 20260503181037 | 57 | 323 | 5.2 | 8.7 | 0.00 | 0.00 | 0.00 | 31 | 1019.6 |
| 20260503180535 | 60 | 204 | 2.6 | 8.7 | 0.00 | 0.00 | 0.00 | 34 | 1019.4 |
| 20260503180032 | 57 | 281 | 2.6 | 6.1 | 0.00 | 0.00 | 0.00 | 31 | 1019.6 |
| 20260503175529 | 56 | 277 | 3.5 | 7.8 | 0.00 | 0.00 | 0.00 | 31 | 1019.5 |
| 20260503175027 | 57 | 340 | 7.8 | 8.7 | 0.00 | 0.00 | 0.00 | 32 | 1019.5 |
| 20260503174524 | 56 | 327 | 6.1 | 7.0 | 0.00 | 0.00 | 0.00 | 30 | 1019.6 |
| 20260503174020 | 55 | 319 | 5.2 | 8.7 | 0.00 | 0.00 | 0.00 | 31 | 1019.9 |
| 20260503173515 | 55 | 334 | 7.8 | 10.4 | 0.00 | 0.00 | 0.00 | 31 | 1019.7 |
| 20260503173011 | 55 | 296 | 5.2 | 5.2 | 0.00 | 0.00 | 0.00 | 36 | 1019.6 |
| 20260503172509 | 57 | 314 | 7.8 | 8.7 | 0.00 | 0.00 | 0.00 | 31 | 1019.8 |
| 20260503172006 | 56 | 285 | 2.6 | 8.7 | 0.00 | 0.00 | 0.00 | 31 | 1019.6 |
| 20260503171502 | 55 | 345 | 7.8 | 8.7 | 0.00 | 0.00 | 0.00 | 31 | 1020.0 |
| 20260503171000 | 55 | 300 | 4.3 | 7.8 | 0.00 | 0.00 | 0.00 | 31 | 1020.0 |
| 20260503170456 | 55 | 354 | 3.5 | 5.2 | 0.00 | 0.00 | 0.00 | 33 | 1020.0 |
| 20260503150848 | 50 | 195 | 3.5 | 7.8 | 0.00 | 0.00 | 0.00 | 43 | 1021.1 |
| 20260503150344 | 50 | 276 | 5.2 | 8.7 | 0.00 | 0.00 | 0.00 | 41 | 1021.1 |
| 20260503140309 | 44 | 336 | 4.3 | 4.3 | 0.00 | 0.00 | 0.00 | 50 | 1021.2 |
| 20260503131238 | 43 | 285 | 1.7 | 4.3 | 0.00 | 0.00 | 0.00 | 50 | 1021.2 |
| 20260503130736 | 43 | 277 | 1.7 | 3.5 | 0.00 | 0.00 | 0.00 | 51 | 1021.0 |
| 20260503130233 | 43 | 278 | 0.0 | 3.5 | 0.00 | 0.00 | 0.00 | 52 | 1021.0 |
| 20260503120159 | 37 | 221 | 0.0 | 1.7 | 0.00 | 0.00 | 0.00 | 71 | 1020.7 |
| 20260503110627 | 33 | 57 | 0.0 | 1.7 | 0.00 | 0.00 | 0.00 | 81 | 1020.2 |
| 20260503110124 | 33 | 275 | 0.9 | 1.7 | 0.00 | 0.00 | 0.00 | 81 | 1020.2 |
| 20260503081440 | 41 | 342 | 3.5 | 4.3 | 0.00 | 0.00 | 0.00 | 59 | 1018.0 |
| 20260503080937 | 40 | 307 | 0.0 | 5.2 | 0.00 | 0.00 | 0.00 | 60 | 1018.1 |
| 20260503080433 | 41 | 6 | 1.7 | 4.3 | 0.00 | 0.00 | 0.00 | 61 | 1018.0 |
| 20260503072910 | 42 | 357 | 1.7 | 5.2 | 0.00 | 0.00 | 0.00 | 57 | 1017.9 |
| 20260503072407 | 42 | 351 | 5.2 | 7.8 | 0.00 | 0.00 | 0.00 | 56 | 1017.9 |
| 20260503071903 | 41 | 345 | 4.3 | 4.3 | 0.00 | 0.00 | 0.00 | 57 | 1017.7 |
| 20260503071401 | 42 | 340 | 2.6 | 3.5 | 0.00 | 0.00 | 0.00 | 56 | 1017.8 |
| 20260503070856 | 42 | 345 | 3.5 | 5.2 | 0.00 | 0.00 | 0.00 | 58 | 1017.6 |
| 20260503070355 | 42 | 354 | 3.5 | 4.3 | 0.00 | 0.00 | 0.00 | 58 | 1017.7 |
| 20260503060320 | 42 | 229 | 0.9 | 5.2 | 0.00 | 0.00 | 0.00 | 63 | 1017.7 |
| 20260503054808 | 41 | 261 | 0.9 | 1.7 | 0.00 | 0.00 | 0.00 | 71 | 1017.5 |
| 20260503054304 | 41 | 249 | 0.0 | 2.6 | 0.00 | 0.00 | 0.00 | 70 | 1017.6 |
| 20260503053801 | 41 | 340 | 1.7 | 1.7 | 0.00 | 0.00 | 0.00 | 72 | 1017.7 |
| 20260503053300 | 41 | 208 | 0.0 | 0.9 | 0.00 | 0.00 | 0.00 | 75 | 1017.7 |
| 20260503052755 | 41 | 302 | 0.0 | 0.9 | 0.00 | 0.00 | 0.00 | 74 | 1017.5 |
| 20260503052253 | 41 | 285 | 0.0 | 2.6 | 0.00 | 0.00 | 0.00 | 72 | 1017.8 |
| 20260503051748 | 41 | 233 | 0.0 | 1.7 | 0.00 | 0.00 | 0.00 | 71 | 1017.6 |
| 20260503051246 | 41 | 0 | 0.0 | 1.7 | 0.00 | 0.00 | 0.00 | 69 | 1017.7 |
| 20260503050742 | 41 | 212 | 0.0 | 1.7 | 0.00 | 0.00 | 0.00 | 70 | 1017.5 |
| 20260503050238 | 41 | 314 | 0.9 | 1.7 | 0.00 | 0.00 | 0.00 | 69 | 1017.6 |
| 20260503045736 | 42 | 145 | 0.9 | 0.9 | 0.00 | 0.00 | 0.00 | 70 | 1017.5 |
| 20260503045234 | 42 | 311 | 0.0 | 1.7 | 0.00 | 0.00 | 0.00 | 65 | 1017.8 |
| 20260503044730 | 42 | 326 | 0.0 | 1.7 | 0.00 | 0.00 | 0.00 | 65 | 1017.6 |
| 20260503044227 | 42 | 347 | 1.7 | 1.7 | 0.00 | 0.00 | 0.00 | 67 | 1017.8 |
| 20260503043724 | 42 | 150 | 0.9 | 1.7 | 0.00 | 0.00 | 0.00 | 67 | 1017.9 |
| 20260503043221 | 43 | 314 | 0.9 | 1.7 | 0.00 | 0.00 | 0.00 | 65 | 1017.8 |
| 20260503042717 | 43 | 314 | 0.0 | 1.7 | 0.00 | 0.00 | 0.00 | 64 | 1017.8 |
| 20260503042214 | 42 | 343 | 1.7 | 1.7 | 0.00 | 0.00 | 0.00 | 65 | 1017.8 |
| 20260503041710 | 43 | 328 | 1.7 | 1.7 | 0.00 | 0.00 | 0.00 | 65 | 1018.0 |
| 20260503041208 | 43 | 75 | 0.0 | 2.6 | 0.00 | 0.00 | 0.00 | 64 | 1017.9 |
| 20260503040705 | 43 | 290 | 0.0 | 1.7 | 0.00 | 0.00 | 0.00 | 63 | 1017.8 |
| 20260503040203 | 43 | 328 | 2.6 | 2.6 | 0.00 | 0.00 | 0.00 | 63 | 1017.9 |
| 20260503035659 | 44 | 331 | 1.7 | 2.6 | 0.00 | 0.00 | 0.00 | 62 | 1017.9 |
| 20260503035157 | 44 | 329 | 2.6 | 3.5 | 0.00 | 0.00 | 0.00 | 60 | 1017.9 |
| 20260503034654 | 44 | 324 | 2.6 | 3.5 | 0.00 | 0.00 | 0.00 | 61 | 1017.8 |
| 20260503034151 | 44 | 348 | 3.5 | 3.5 | 0.00 | 0.00 | 0.00 | 61 | 1017.9 |
| 20260503033648 | 43 | 355 | 2.6 | 3.5 | 0.00 | 0.00 | 0.00 | 61 | 1017.7 |
| 20260503033146 | 43 | 331 | 2.6 | 3.5 | 0.00 | 0.00 | 0.00 | 61 | 1017.6 |
| 20260503032644 | 43 | 347 | 1.7 | 3.5 | 0.00 | 0.00 | 0.00 | 61 | 1017.7 |
| 20260503032142 | 43 | 345 | 1.7 | 3.5 | 0.00 | 0.00 | 0.00 | 62 | 1017.8 |
| 20260503031639 | 44 | 338 | 1.7 | 1.7 | 0.00 | 0.00 | 0.00 | 62 | 1017.8 |
| 20260503031137 | 44 | 349 | 1.7 | 3.5 | 0.00 | 0.00 | 0.00 | 61 | 1017.5 |
| 20260503030632 | 43 | 338 | 1.7 | 3.5 | 0.00 | 0.00 | 0.00 | 61 | 1017.4 |
| 20260503030130 | 43 | 346 | 2.6 | 2.6 | 0.00 | 0.00 | 0.00 | 61 | 1017.8 |
| 20260503025626 | 43 | 345 | 1.7 | 2.6 | 0.00 | 0.00 | 0.00 | 61 | 1017.8 |
| 20260503025124 | 43 | 345 | 1.7 | 1.7 | 0.00 | 0.00 | 0.00 | 60 | 1017.8 |
| 20260503024620 | 43 | 344 | 1.7 | 1.7 | 0.00 | 0.00 | 0.00 | 62 | 1017.8 |
| 20260503024118 | 43 | 332 | 1.7 | 1.7 | 0.00 | 0.00 | 0.00 | 61 | 1017.9 |
| 20260503023615 | 42 | 338 | 1.7 | 1.7 | 0.00 | 0.00 | 0.00 | 64 | 1017.7 |
| 20260503023112 | 42 | 291 | 1.7 | 1.7 | 0.00 | 0.00 | 0.00 | 68 | 1017.8 |
| 20260503022607 | 42 | 224 | 0.0 | 0.9 | 0.00 | 0.00 | 0.00 | 67 | 1017.6 |
| 20260503022102 | 42 | 171 | 0.0 | 0.9 | 0.00 | 0.00 | 0.00 | 66 | 1017.7 |
| 20260503021600 | 42 | 124 | 0.0 | 1.7 | 0.00 | 0.00 | 0.00 | 66 | 1017.6 |
| 20260503021056 | 42 | 341 | 0.0 | 1.7 | 0.00 | 0.00 | 0.00 | 63 | 1017.7 |
| 20260503020553 | 42 | 338 | 0.9 | 1.7 | 0.00 | 0.00 | 0.00 | 64 | 1017.8 |
| 20260503020050 | 43 | 228 | 0.0 | 1.7 | 0.00 | 0.00 | 0.00 | 64 | 1017.6 |
| 20260503015547 | 43 | 293 | 0.0 | 1.7 | 0.00 | 0.00 | 0.00 | 60 | 1017.6 |
| 20260503015044 | 44 | 282 | 0.0 | 3.5 | 0.00 | 0.00 | 0.00 | 58 | 1017.5 |
| 20260503014540 | 44 | 267 | 1.7 | 2.6 | 0.00 | 0.00 | 0.00 | 58 | 1017.6 |
| 20260503014038 | 44 | 315 | 0.0 | 2.6 | 0.00 | 0.00 | 0.00 | 56 | 1017.4 |
| 20260503013535 | 45 | 355 | 1.7 | 2.6 | 0.00 | 0.00 | 0.00 | 55 | 1017.3 |
| 20260503013033 | 46 | 261 | 1.7 | 3.5 | 0.00 | 0.00 | 0.00 | 49 | 1017.4 |
| 20260503012530 | 46 | 277 | 1.7 | 4.3 | 0.00 | 0.00 | 0.00 | 50 | 1017.3 |
| 20260503012026 | 46 | 242 | 0.9 | 1.7 | 0.00 | 0.00 | 0.00 | 48 | 1017.3 |
| 20260503011523 | 46 | 177 | 2.6 | 3.5 | 0.00 | 0.00 | 0.00 | 59 | 1017.4 |
| 20260503011021 | 46 | 257 | 0.9 | 3.5 | 0.00 | 0.00 | 0.00 | 49 | 1017.3 |
| 20260503010516 | 45 | 22 | 0.0 | 1.7 | 0.00 | 0.00 | 0.00 | 53 | 1017.4 |
| 20260503010015 | 46 | 284 | 0.9 | 3.5 | 0.00 | 0.00 | 0.00 | 54 | 1017.2 |
| 20260503005511 | 46 | 243 | 0.9 | 1.7 | 0.00 | 0.00 | 0.00 | 49 | 1016.9 |
| 20260503005008 | 46 | 155 | 2.6 | 3.5 | 0.00 | 0.00 | 0.00 | 56 | 1017.0 |
| 20260503004504 | 47 | 206 | 1.7 | 1.7 | 0.00 | 0.00 | 0.00 | 49 | 1016.7 |
| 20260503004003 | 48 | 318 | 2.6 | 3.5 | 0.00 | 0.00 | 0.00 | 46 | 1016.7 |
| 20260503003459 | 48 | 332 | 0.9 | 3.5 | 0.00 | 0.00 | 0.00 | 46 | 1016.6 |
| 20260503002956 | 48 | 293 | 1.7 | 3.5 | 0.00 | 0.00 | 0.00 | 45 | 1016.7 |
| 20260503002453 | 48 | 302 | 0.0 | 3.5 | 0.00 | 0.00 | 0.00 | 45 | 1016.5 |
| 20260503001949 | 47 | 302 | 0.0 | 0.9 | 0.00 | 0.00 | 0.00 | 49 | 1016.6 |
| 20260503001446 | 48 | 274 | 1.7 | 3.5 | 0.00 | 0.00 | 0.00 | 46 | 1016.5 |
| 20260503000943 | 48 | 302 | 2.6 | 4.3 | 0.00 | 0.00 | 0.00 | 44 | 1016.5 |
| 20260503000440 | 49 | 303 | 1.7 | 2.6 | 0.00 | 0.00 | 0.00 | 44 | 1016.3 |
| 20260502235938 | 48 | 224 | 4.3 | 4.3 | 0.00 | 0.00 | 0.00 | 43 | 1016.2 |
| 20260502235434 | 48 | 293 | 1.7 | 3.5 | 0.00 | 0.00 | 0.00 | 46 | 1016.4 |
| 20260502234932 | 48 | 303 | 2.6 | 5.2 | 0.00 | 0.00 | 0.00 | 42 | 1016.1 |
| 20260502234428 | 49 | 319 | 0.9 | 2.6 | 0.00 | 0.00 | 0.00 | 43 | 1016.2 |
| 20260502233926 | 50 | 291 | 5.2 | 5.2 | 0.00 | 0.00 | 0.00 | 41 | 1016.2 |
| 20260502233420 | 50 | 218 | 2.6 | 7.0 | 0.00 | 0.00 | 0.00 | 41 | 1016.0 |
| 20260502232918 | 50 | 348 | 3.5 | 7.8 | 0.00 | 0.00 | 0.00 | 40 | 1015.9 |
| 20260502232414 | 50 | 303 | 4.3 | 5.2 | 0.00 | 0.00 | 0.00 | 41 | 1015.9 |
| 20260502231912 | 50 | 306 | 5.2 | 7.0 | 0.00 | 0.00 | 0.00 | 40 | 1015.8 |
| 20260502231409 | 50 | 202 | 3.5 | 9.6 | 0.00 | 0.00 | 0.00 | 39 | 1016.0 |
| 20260502230906 | 50 | 326 | 3.5 | 5.2 | 0.00 | 0.00 | 0.00 | 40 | 1015.9 |
| 20260502230359 | 50 | 341 | 1.7 | 4.3 | 0.00 | 0.00 | 0.00 | 41 | 1015.8 |
| 20260502225855 | 50 | 299 | 4.3 | 5.2 | 0.00 | 0.00 | 0.00 | 39 | 1016.0 |
| 20260502225352 | 50 | 350 | 3.5 | 9.6 | 0.00 | 0.00 | 0.00 | 38 | 1015.7 |
| 20260502224849 | 50 | 335 | 3.5 | 5.2 | 0.00 | 0.00 | 0.00 | 40 | 1015.7 |
| 20260502224345 | 50 | 5 | 5.2 | 6.1 | 0.00 | 0.00 | 0.00 | 40 | 1015.7 |
| 20260502223843 | 50 | 312 | 2.6 | 3.5 | 0.00 | 0.00 | 0.00 | 42 | 1015.8 |
| 20260502223341 | 50 | 289 | 2.6 | 3.5 | 0.00 | 0.00 | 0.00 | 41 | 1015.7 |
| 20260502222838 | 50 | 301 | 1.7 | 6.1 | 0.00 | 0.00 | 0.00 | 40 | 1015.7 |
| 20260502222336 | 50 | 330 | 1.7 | 3.5 | 0.00 | 0.00 | 0.00 | 42 | 1015.7 |
| 20260502221831 | 50 | 339 | 3.5 | 5.2 | 0.00 | 0.00 | 0.00 | 42 | 1015.5 |
| 20260502221327 | 51 | 291 | 1.7 | 7.0 | 0.00 | 0.00 | 0.00 | 41 | 1015.7 |
| 20260502220825 | 51 | 320 | 2.6 | 6.1 | 0.00 | 0.00 | 0.00 | 41 | 1015.6 |